| time (UTC) | temp C | wind direction | speed KPH | gust KPH | rain 1hr cm | rain 24hr cm | rain mn cm | humidity % | barometer mb |
| 20260507213006 | 12 | 273 | 9.7 | 24.1 | 0.00 | 0.00 | 0.00 | 40 | 1011.4 |
| 20260507212006 | 11 | 228 | 14.5 | 35.4 | 0.00 | 0.00 | 0.00 | 40 | 1011.5 |
| 20260507211007 | 12 | 318 | 11.3 | 19.3 | 0.00 | 0.00 | 0.00 | 40 | 1011.4 |
| 20260507205006 | 12 | 318 | 11.3 | 22.5 | 0.00 | 0.00 | 0.00 | 40 | 1011.4 |
| 20260507204007 | 13 | 250 | 9.7 | 20.9 | 0.00 | 0.00 | 0.00 | 39 | 1011.4 |
| 20260507203007 | 12 | 318 | 9.7 | 17.7 | 0.00 | 0.00 | 0.00 | 43 | 1011.5 |
| 20260507202008 | 12 | 318 | 9.7 | 19.3 | 0.00 | 0.00 | 0.00 | 41 | 1011.6 |
| 20260507201003 | 12 | 295 | 12.9 | 22.5 | 0.00 | 0.00 | 0.00 | 44 | 1011.5 |
| 20260507200003 | 12 | 340 | 4.8 | 9.7 | 0.00 | 0.00 | 0.00 | 46 | 1011.5 |
| 20260507194003 | 11 | 273 | 8.0 | 22.5 | 0.00 | 0.00 | 0.00 | 46 | 1011.7 |
| 20260507193003 | 11 | 318 | 9.7 | 27.4 | 0.00 | 0.00 | 0.00 | 47 | 1011.7 |
| 20260507192003 | 11 | 273 | 6.4 | 16.1 | 0.00 | 0.00 | 0.00 | 45 | 1011.8 |
| 20260507191004 | 12 | 273 | 8.0 | 19.3 | 0.00 | 0.00 | 0.00 | 45 | 1012.0 |
| 20260507190005 | 11 | 273 | 12.9 | 19.3 | 0.00 | 0.00 | 0.00 | 45 | 1012.0 |
| 20260507184004 | 11 | 250 | 9.7 | 17.7 | 0.00 | 0.00 | 0.00 | 45 | 1012.1 |
| 20260507183005 | 12 | 273 | 6.4 | 14.5 | 0.00 | 0.00 | 0.00 | 46 | 1012.0 |
| 20260507182005 | 12 | 295 | 8.0 | 11.3 | 0.00 | 0.00 | 0.00 | 46 | 1012.0 |
| 20260507181005 | 12 | 318 | 6.4 | 16.1 | 0.00 | 0.00 | 0.00 | 47 | 1012.1 |
| 20260507180006 | 12 | 273 | 8.0 | 19.3 | 0.00 | 0.00 | 0.00 | 44 | 1012.2 |
| 20260507175007 | 12 | 250 | 19.3 | 25.7 | 0.00 | 0.00 | 0.00 | 46 | 1012.3 |
| 20260507173006 | 11 | 318 | 8.0 | 20.9 | 0.00 | 0.00 | 0.00 | 46 | 1012.3 |
| 20260507172007 | 11 | 295 | 6.4 | 11.3 | 0.00 | 0.00 | 0.00 | 47 | 1012.4 |
| 20260507170006 | 12 | 273 | 12.9 | 19.3 | 0.00 | 0.00 | 0.00 | 43 | 1012.5 |
| 20260507164006 | 11 | 273 | 9.7 | 12.9 | 0.00 | 0.00 | 0.00 | 48 | 1012.6 |
| 20260507163007 | 11 | 340 | 4.8 | 9.7 | 0.00 | 0.00 | 0.00 | 48 | 1012.7 |
| 20260507160005 | 12 | 318 | 8.0 | 14.5 | 0.00 | 0.00 | 0.00 | 49 | 1012.8 |
| 20260507155005 | 11 | 318 | 9.7 | 14.5 | 0.00 | 0.00 | 0.00 | 51 | 1012.9 |
| 20260507153005 | 11 | 273 | 9.7 | 16.1 | 0.00 | 0.00 | 0.00 | 52 | 1013.0 |
| 20260507151004 | 11 | 183 | 8.0 | 14.5 | 0.00 | 0.00 | 0.00 | 50 | 1013.2 |
| 20260507150005 | 11 | 340 | 4.8 | 11.3 | 0.00 | 0.00 | 0.00 | 55 | 1013.2 |
| 20260507145005 | 11 | 48 | 4.8 | 9.7 | 0.00 | 0.00 | 0.00 | 55 | 1013.2 |
| 20260507144005 | 11 | 318 | 4.8 | 6.4 | 0.00 | 0.00 | 0.00 | 58 | 1013.3 |
| 20260507142005 | 11 | 228 | 3.2 | 4.8 | 0.00 | 0.00 | 0.00 | 59 | 1013.5 |
| 20260507141007 | 12 | 318 | 6.4 | 11.3 | 0.00 | 0.00 | 0.00 | 60 | 1014.0 |
| 20260507140006 | 11 | 318 | 4.8 | 6.4 | 0.00 | 0.00 | 0.00 | 58 | 1013.6 |
| 20260507135006 | 11 | 295 | 4.8 | 8.0 | 0.00 | 0.00 | 0.00 | 61 | 1013.8 |
| 20260507134006 | 10 | 3 | 6.4 | 9.7 | 0.00 | 0.00 | 0.00 | 64 | 1013.8 |
| 20260507133000 | 10 | 318 | 3.2 | 4.8 | 0.00 | 0.00 | 0.00 | 67 | 1013.9 |
| 20260507132001 | 9 | 295 | 6.4 | 9.7 | 0.00 | 0.00 | 0.00 | 63 | 1013.9 |
| 20260507131002 | 9 | 318 | 3.2 | 6.4 | 0.00 | 0.03 | 0.00 | 64 | 1014.2 |
| 20260507130003 | 9 | 205 | 1.6 | 3.2 | 0.00 | 0.05 | 0.00 | 70 | 1013.8 |
| 20260507125004 | 8 | 3 | 4.8 | 6.4 | 0.00 | 0.05 | 0.00 | 69 | 1013.8 |
| 20260507124004 | 8 | 3 | 1.6 | 3.2 | 0.00 | 0.05 | 0.00 | 72 | 1013.7 |
| 20260507123004 | 7 | 25 | 4.8 | 6.4 | 0.00 | 0.05 | 0.00 | 76 | 1013.7 |
| 20260507121003 | 7 | 3 | 3.2 | 4.8 | 0.00 | 0.08 | 0.00 | 81 | 1013.7 |
| 20260507120004 | 6 | 70 | 1.6 | 4.8 | 0.00 | 0.08 | 0.00 | 86 | 1013.8 |
| 20260507115004 | 5 | 160 | 1.6 | 1.6 | 0.00 | 0.08 | 0.00 | 92 | 1013.8 |
| 20260507114004 | 3 | 48 | 1.6 | 3.2 | 0.00 | 0.08 | 0.00 | 92 | 1013.8 |
| 20260507113005 | 4 | 25 | 1.6 | 1.6 | 0.00 | 0.08 | 0.00 | 95 | 1013.7 |
| 20260507111003 | 3 | 48 | 0.0 | 1.6 | 0.00 | 0.13 | 0.00 | 99 | 1013.8 |
| 20260507110004 | 2 | 93 | 0.0 | 0.0 | 0.00 | 0.15 | 0.00 | 99 | 1013.7 |
| 20260507105005 | 1 | 228 | 1.6 | 3.2 | 0.00 | 0.18 | 0.00 | 97 | 1013.5 |
| 20260507103002 | 0 | 273 | 1.6 | 3.2 | 0.00 | 0.20 | 0.00 | 97 | 1013.5 |
| 20260507102001 | 0 | 138 | 0.0 | 1.6 | 0.00 | 0.23 | 0.00 | 96 | 1013.3 |
| 20260507101007 | 0 | 160 | 1.6 | 3.2 | 0.00 | 0.23 | 0.00 | 95 | 1013.3 |
| 20260507100001 | 0 | 205 | 1.6 | 1.6 | 0.00 | 0.25 | 0.00 | 95 | 1013.3 |
| 20260507094005 | 1 | 183 | 0.0 | 1.6 | 0.00 | 0.33 | 0.00 | 95 | 1013.2 |
| 20260507093005 | 1 | 160 | 1.6 | 3.2 | 0.00 | 0.38 | 0.00 | 95 | 1013.7 |
| 20260507091005 | 1 | 70 | 1.6 | 1.6 | 0.00 | 0.48 | 0.00 | 94 | 1013.5 |
| 20260507090006 | 1 | 340 | 0.0 | 1.6 | 0.00 | 0.51 | 0.00 | 94 | 1013.6 |
| 20260507085004 | 1 | 183 | 0.0 | 1.6 | 0.00 | 0.56 | 0.00 | 94 | 1013.5 |
| 20260507084004 | 1 | 138 | 3.2 | 3.2 | 0.00 | 0.58 | 0.00 | 93 | 1013.4 |
| 20260507083004 | 1 | 138 | 1.6 | 3.2 | 0.00 | 0.64 | 0.00 | 93 | 1013.6 |
| 20260507082003 | 1 | 340 | 1.6 | 3.2 | 0.00 | 0.69 | 0.00 | 92 | 1013.7 |
| 20260507081004 | 1 | 70 | 1.6 | 3.2 | 0.00 | 0.74 | 0.00 | 91 | 1013.6 |
| 20260507080004 | 1 | 250 | 0.0 | 1.6 | 0.00 | 0.84 | 0.00 | 91 | 1013.8 |
| 20260507075004 | 2 | 228 | 3.2 | 4.8 | 0.00 | 0.86 | 0.00 | 91 | 1013.7 |
| 20260507074004 | 2 | 228 | 3.2 | 4.8 | 0.00 | 0.91 | 0.00 | 89 | 1013.6 |
| 20260507073005 | 2 | 228 | 1.6 | 3.2 | 0.00 | 0.97 | 0.00 | 88 | 1013.6 |
| 20260507072004 | 2 | 205 | 1.6 | 4.8 | 0.00 | 1.07 | 0.00 | 88 | 1013.7 |
| 20260507071005 | 3 | 228 | 3.2 | 4.8 | 0.00 | 1.09 | 0.00 | 87 | 1014.3 |
| 20260507065004 | 3 | 115 | 1.6 | 1.6 | 0.00 | 1.14 | 0.00 | 85 | 1013.9 |
| 20260507064005 | 3 | 3 | 1.6 | 4.8 | 0.00 | 1.17 | 0.00 | 83 | 1014.0 |
| 20260507062004 | 4 | 205 | 1.6 | 4.8 | 0.00 | 1.22 | 0.00 | 81 | 1014.1 |
| 20260507061005 | 5 | 160 | 3.2 | 4.8 | 0.00 | 1.27 | 0.00 | 81 | 1014.2 |
| 20260507060005 | 5 | 250 | 4.8 | 4.8 | 0.00 | 1.30 | 0.00 | 81 | 1014.1 |
| 20260507055006 | 5 | 228 | 3.2 | 6.4 | 0.00 | 1.32 | 0.00 | 81 | 1014.1 |
| 20260507054006 | 5 | 205 | 4.8 | 6.4 | 0.00 | 1.35 | 0.00 | 81 | 1014.2 |
| 20260507053006 | 5 | 205 | 4.8 | 4.8 | 0.00 | 1.37 | 0.00 | 80 | 1014.1 |
| 20260507052001 | 5 | 250 | 3.2 | 6.4 | 0.00 | 1.40 | 0.00 | 79 | 1014.2 |
| 20260507051002 | 5 | 183 | 4.8 | 8.0 | 0.00 | 1.40 | 0.00 | 79 | 1014.4 |
| 20260507050002 | 5 | 228 | 3.2 | 4.8 | 0.00 | 1.45 | 0.00 | 79 | 1014.4 |
| 20260507045002 | 5 | 205 | 4.8 | 6.4 | 0.00 | 1.55 | 0.00 | 78 | 1014.5 |
| 20260507044002 | 6 | 250 | 4.8 | 6.4 | 0.00 | 1.60 | 0.00 | 77 | 1014.6 |
| 20260507043003 | 6 | 250 | 6.4 | 8.0 | 0.00 | 1.65 | 0.00 | 76 | 1014.6 |
| 20260507042003 | 6 | 250 | 8.0 | 9.7 | 0.00 | 1.73 | 0.00 | 75 | 1014.8 |
| 20260507041004 | 6 | 250 | 8.0 | 9.7 | 0.00 | 1.83 | 0.00 | 75 | 1014.6 |
| 20260507040005 | 6 | 228 | 8.0 | 9.7 | 0.00 | 1.91 | 0.00 | 74 | 1014.5 |
| 20260507035004 | 6 | 250 | 8.0 | 12.9 | 0.00 | 1.98 | 1.91 | 72 | 1014.5 |
| 20260507034004 | 6 | 250 | 8.0 | 14.5 | 0.00 | 2.03 | 1.91 | 74 | 1014.4 |
| 20260507033005 | 6 | 250 | 4.8 | 8.0 | 0.00 | 2.06 | 1.91 | 74 | 1015.0 |
| 20260507032006 | 6 | 273 | 11.3 | 16.1 | 0.00 | 2.08 | 1.91 | 74 | 1014.3 |
| 20260507031001 | 6 | 273 | 8.0 | 11.3 | 0.00 | 2.13 | 1.91 | 74 | 1014.2 |
| 20260507030002 | 6 | 228 | 9.7 | 14.5 | 0.00 | 2.16 | 1.91 | 73 | 1014.2 |
| 20260507025003 | 6 | 228 | 4.8 | 8.0 | 0.00 | 2.18 | 1.91 | 72 | 1014.1 |
| 20260507024003 | 6 | 250 | 8.0 | 11.3 | 0.00 | 2.21 | 1.91 | 71 | 1014.1 |
| 20260507023004 | 6 | 273 | 6.4 | 11.3 | 0.00 | 2.26 | 1.91 | 71 | 1014.2 |
| 20260507022005 | 6 | 250 | 11.3 | 17.7 | 0.00 | 2.31 | 1.91 | 70 | 1014.0 |
| 20260507021006 | 6 | 273 | 6.4 | 11.3 | 0.00 | 2.36 | 1.91 | 69 | 1014.1 |
| 20260507020007 | 6 | 250 | 12.9 | 16.1 | 0.00 | 2.46 | 1.91 | 67 | 1013.9 |
| 20260507015007 | 6 | 250 | 12.9 | 19.3 | 0.00 | 2.69 | 1.91 | 66 | 1014.1 |
| 20260507014002 | 7 | 250 | 14.5 | 19.3 | 0.00 | 2.92 | 1.91 | 66 | 1014.1 |
| 20260507013003 | 7 | 228 | 14.5 | 17.7 | 0.00 | 3.07 | 1.91 | 65 | 1014.0 |
| 20260507012004 | 7 | 250 | 14.5 | 19.3 | 0.00 | 3.10 | 1.91 | 64 | 1014.0 |
| 20260507011005 | 7 | 273 | 9.7 | 14.5 | 0.00 | 3.15 | 1.91 | 63 | 1014.1 |
| 20260507010006 | 7 | 228 | 9.7 | 12.9 | 0.00 | 3.15 | 1.91 | 62 | 1014.1 |
| 20260507003005 | 7 | 273 | 8.0 | 16.1 | 0.00 | 3.30 | 1.91 | 65 | 1014.0 |
| 20260507002006 | 8 | 318 | 4.8 | 8.0 | 0.00 | 3.33 | 1.91 | 65 | 1013.9 |
| 20260507001007 | 8 | 250 | 9.7 | 14.5 | 0.00 | 3.38 | 1.91 | 59 | 1013.9 |
| 20260507000008 | 8 | 250 | 12.9 | 14.5 | 0.00 | 3.43 | 1.91 | 59 | 1013.8 |
| 20260506235002 | 8 | 250 | 11.3 | 17.7 | 0.00 | 3.45 | 1.91 | 59 | 1013.5 |
| 20260506234003 | 8 | 250 | 11.3 | 14.5 | 0.00 | 3.53 | 1.91 | 61 | 1013.3 |
| 20260506233003 | 8 | 340 | 4.8 | 8.0 | 0.00 | 3.56 | 1.91 | 61 | 1013.2 |
| 20260506232004 | 8 | 273 | 8.0 | 17.7 | 0.00 | 3.56 | 1.91 | 61 | 1013.4 |
| 20260506231004 | 8 | 295 | 11.3 | 25.7 | 0.00 | 3.58 | 1.91 | 62 | 1013.3 |
| 20260506230005 | 8 | 295 | 6.4 | 9.7 | 0.00 | 3.61 | 1.91 | 64 | 1013.3 |
| 20260506225006 | 8 | 318 | 3.2 | 8.0 | 0.00 | 3.71 | 1.91 | 63 | 1013.0 |
| 20260506223026 | 9 | 295 | 8.0 | 19.3 | 0.00 | 3.81 | 1.91 | 65 | 1013.0 |
| 20260506222007 | 9 | 273 | 12.9 | 19.3 | 0.00 | 3.81 | 1.91 | 64 | 1012.7 |
| 20260506220007 | 9 | 318 | 6.4 | 12.9 | 0.00 | 3.81 | 1.91 | 65 | 1012.6 |
| 20260506215001 | 9 | 318 | 11.3 | 19.3 | 0.00 | 3.84 | 1.91 | 65 | 1012.3 |
| 20260506214002 | 10 | 273 | 11.3 | 20.9 | 0.00 | 3.84 | 1.91 | 66 | 1012.3 |